SBLO Airport Information

Runway Information
Runway 13 Length 6890 ft width 148 ft
Elevation 0 ft Threshold 0 ft Heading 0
Runway 31 Length 6890 ft Width 148 ft
Elevation 0 ft Threshold 0 ft Heading 0
Airport Frequencies
Type APP Name APP Frequency 129.7 MHZ
Type ATIS Name ATIS Frequency 127.675 MHZ
Type TWR Name TWR Frequency 118.4 MHZ
Airport Navaids
Type VOR-DME Name Londrina Frequency 112400 KHZ
Type NDB Name Londrina Frequency 365 KHZ
Type NDB Name Guaruja Frequency 305 KHZ
Airport Weather Information & NOTAM
ADDS - METARS form results

(1016 UTC 18 January 2021)
Data provider http://aviationweather.gov/metar/data/
 
METAR text: SBLO 181000Z 05004KT 7000 SCT003 BKN005 23/23 Q1011
Conditions at: SBLO (LONDRINA AIRPORT, BR) observed 1000 UTC 18 January 2021
Temperature: 23.0°C (73°F)
Dewpoint: 23.0°C (73°F) [RH = 100%]
Pressure (altimeter): 29.85 inches Hg (1011.0 mb)
Winds: from the NE (50 degrees) at 5 MPH (4 knots; 2.1 m/s)
Visibility: 4 miles ( 7 km)
Ceiling: 500 feet AGL
Clouds: scattered clouds at 300 feet AGL
broken clouds at 500 feet AGL
Weather: no significant weather observed at this time

METAR text: SBLO 180940Z 03004KT 6000 BKN003 BKN005 23/23 Q1011
Conditions at: SBLO (LONDRINA AIRPORT, BR) observed 0940 UTC 18 January 2021
Temperature: 23.0°C (73°F)
Dewpoint: 23.0°C (73°F) [RH = 100%]
Pressure (altimeter): 29.85 inches Hg (1011.0 mb)
Winds: from the NNE (30 degrees) at 5 MPH (4 knots; 2.1 m/s)
Visibility: 4 miles ( 6 km)
Ceiling: 300 feet AGL
Clouds: broken clouds at 300 feet AGL
broken clouds at 500 feet AGL
Weather: no significant weather observed at this time

Forecast for: SBLO (LONDRINA AIRPORT, BR)
Text: TAF SBLO 181000Z 1812/1824 04008KT 9000 BKN008 BKN013 TX26/1817Z TN22/1823Z
Forecast period: 1200 UTC 18 January 2021 to 0000 UTC 19 January 2021
Forecast type: FROM: standard forecast or significant change
Winds: from the NE (40 degrees) at 9 MPH (8 knots; 4.1 m/s)
Visibility: 6 miles (9 km)
Ceiling: 800 feet AGL
Clouds: broken clouds at 800 feet AGL
broken clouds at 1300 feet AGL
Weather: no significant weather forecast for this period
Text: PROB30 1812/1815 2000 RADZ BR BKN005
Forecast period: 1200 to 1500 UTC 18 January 2021
Forecast type: PROBABLE: 30 percent likelihood of the following during this time
Visibility: 1.24 miles (2.00 km)
Ceiling: 500 feet AGL
Clouds: broken clouds at 500 feet AGL
Weather: RA DZ BR  (moderate rain, moderate drizzle, mist)
Text: TEMPO 1816/1822 14008KT 4000 TSRA BR BKN015 FEW025CB RMK PGD
Forecast period: 1600 to 2200 UTC 18 January 2021
Forecast type: TEMPORARY: The following changes expected for less than half the time period
Winds: from the SE (140 degrees) at 9 MPH (8 knots; 4.1 m/s)
Visibility: 2.49 miles (4.01 km)
Ceiling: 1500 feet AGL
Clouds: broken clouds at 1500 feet AGL
few clouds at 2500 feet AGL
Weather: TSRA BR  (rain associated with thunderstorm(s), mist)